Time;durP1;ratioP1;P1;durP2;ratioP2;P2;SDS_P1;SDS_P2;PMS_P1;PMS_P2;Temp;Humidity;BMP_temperature;BMP_pressure;BME280_temperature;BME280_humidity;BME280_pressure;Samples;Min_cycle;Max_cycle;Signal;HPM_P1;HPM_P2
2022/04/06 00:01:43;;;;;;;1.55;1.00;;;22.10;56.90;;;;;;4952818;28;20281;-62
2022/04/06 00:04:14;;;;;;;0.98;0.85;;;22.10;56.90;;;;;;4952174;28;20293;-60
2022/04/06 00:06:44;;;;;;;2.60;1.13;;;22.10;57.00;;;;;;4996017;22;20648;-56
2022/04/06 00:09:15;;;;;;;2.20;1.00;;;22.10;57.00;;;;;;5010991;28;20300;-56
2022/04/06 00:11:45;;;;;;;2.00;1.13;;;22.10;57.00;;;;;;5010629;28;20272;-56
2022/04/06 00:14:16;;;;;;;3.47;1.25;;;22.10;57.10;;;;;;5010802;28;20726;-57
2022/04/06 00:16:48;;;;;;;3.55;1.13;;;22.10;57.10;;;;;;5008990;28;20276;-57
2022/04/06 00:19:19;;;;;;;2.35;1.23;;;22.10;57.30;;;;;;5009392;28;20212;-57
2022/04/06 00:21:49;;;;;;;1.48;1.10;;;22.10;57.30;;;;;;5010409;28;20631;-57
2022/04/06 00:24:20;;;;;;;2.55;1.48;;;22.10;57.40;;;;;;5009929;28;20284;-56
2022/04/06 00:26:50;;;;;;;3.38;1.35;;;22.10;57.40;;;;;;5010823;28;20280;-56
2022/04/06 00:29:21;;;;;;;1.98;1.23;;;22.10;57.50;;;;;;5010032;28;20308;-57
2022/04/06 00:31:53;;;;;;;1.77;1.25;;;22.10;57.50;;;;;;5010589;28;20283;-56
2022/04/06 00:35:28;;;;;;;1.45;1.17;;;22.10;57.50;;;;;;5010634;28;20232;-56
2022/04/06 00:37:14;;;;;;;1.90;1.25;;;22.10;57.40;;;;;;5010159;28;20200;-57
2022/04/06 00:39:45;;;;;;;3.90;1.35;;;22.10;57.40;;;;;;5008981;28;20771;-56
2022/04/06 00:42:15;;;;;;;2.67;1.25;;;22.10;57.40;;;;;;5003768;28;21322;-56
2022/04/06 00:44:46;;;;;;;3.85;1.30;;;22.10;57.40;;;;;;5008436;28;20728;-57
2022/04/06 00:47:18;;;;;;;2.80;1.23;;;22.10;58.00;;;;;;5009179;28;20269;-56
2022/04/06 00:49:49;;;;;;;2.33;1.25;;;22.10;57.40;;;;;;5001529;28;20307;-56
2022/04/06 00:52:19;;;;;;;2.85;1.40;;;22.10;57.40;;;;;;5008365;28;20716;-57
2022/04/06 00:54:51;;;;;;;2.35;1.52;;;22.10;57.50;;;;;;5002015;28;20288;-56
2022/04/06 00:57:21;;;;;;;3.28;1.25;;;22.10;57.60;;;;;;5004034;28;20288;-56
2022/04/06 00:59:53;;;;;;;2.17;1.15;;;22.10;57.60;;;;;;5008789;28;20244;-56
2022/04/06 01:02:25;;;;;;;2.22;1.42;;;22.10;57.60;;;;;;5010313;28;20199;-56
2022/04/06 01:04:56;;;;;;;3.08;1.30;;;22.10;57.60;;;;;;5008956;28;20193;-56
2022/04/06 01:07:26;;;;;;;2.20;1.45;;;22.10;57.60;;;;;;5025925;22;20307;-58
2022/04/06 01:09:57;;;;;;;2.45;1.30;;;22.00;57.60;;;;;;5009737;28;20245;-58
2022/04/06 01:12:28;;;;;;;2.35;1.30;;;22.10;57.70;;;;;;5009894;28;20282;-58
2022/04/06 01:14:59;;;;;;;2.45;1.33;;;22.00;57.60;;;;;;5009451;28;20767;-58
2022/04/06 01:17:37;;;;;;;3.33;1.30;;;22.00;57.60;;;;;;5009324;28;20205;-59
2022/04/06 01:20:12;;;;;;;2.08;1.17;;;22.00;57.60;;;;;;5007520;28;20382;-59
2022/04/06 01:22:44;;;;;;;1.55;1.20;;;22.10;57.60;;;;;;5009629;28;20276;-59
2022/04/06 01:25:15;;;;;;;2.45;1.50;;;22.00;57.60;;;;;;5010009;28;20189;-59
2022/04/06 01:27:45;;;;;;;3.35;1.55;;;22.10;57.60;;;;;;5008912;28;20284;-58
2022/04/06 01:30:16;;;;;;;1.98;1.40;;;22.00;57.50;;;;;;5009909;28;20308;-59
2022/04/06 01:32:46;;;;;;;1.73;1.13;;;22.10;57.60;;;;;;5009073;28;20276;-59
2022/04/06 01:35:17;;;;;;;2.38;1.40;;;22.00;57.50;;;;;;4996853;28;20267;-59
2022/04/06 01:37:49;;;;;;;1.20;1.00;;;22.00;57.50;;;;;;4991316;28;20197;-59
2022/04/06 01:40:20;;;;;;;1.80;1.35;;;22.00;57.50;;;;;;4991286;28;20245;-59
2022/04/06 01:42:50;;;;;;;2.00;1.48;;;22.00;57.50;;;;;;4988035;28;20202;-59
2022/04/06 01:45:21;;;;;;;2.28;1.50;;;22.00;57.50;;;;;;4971680;28;20628;-60
2022/04/06 01:47:51;;;;;;;2.80;1.40;;;22.00;57.50;;;;;;4971032;28;20234;-59
2022/04/06 01:53:10;;;;;;;3.67;1.60;;;22.00;57.60;;;;;;4991211;28;20196;-59
2022/04/06 01:55:40;;;;;;;2.15;1.60;;;22.00;57.70;;;;;;4991180;28;20227;-60
2022/04/06 01:58:11;;;;;;;2.40;1.20;;;22.00;57.70;;;;;;4990959;28;20231;-59
2022/04/06 02:00:42;;;;;;;1.98;1.30;;;22.00;57.60;;;;;;4990702;28;20280;-59
2022/04/06 02:03:13;;;;;;;2.13;1.20;;;22.00;57.70;;;;;;4990740;28;20199;-59
2022/04/06 02:05:42;;;;;;;2.47;1.60;;;22.00;57.70;;;;;;5008662;22;20201;31
2022/04/06 02:08:14;;;;;;;2.78;1.48;;;22.00;57.70;;;;;;4987996;28;20312;-65
2022/04/06 02:10:45;;;;;;;1.73;1.30;;;22.00;57.70;;;;;;4989288;28;20204;-58
2022/04/06 02:13:15;;;;;;;2.42;1.30;;;22.00;57.60;;;;;;4989608;28;20276;-59
2022/04/06 02:15:48;;;;;;;1.88;1.20;;;22.00;57.80;;;;;;4989405;28;20296;-62
2022/04/06 02:18:19;;;;;;;1.40;1.30;;;22.10;57.90;;;;;;4988894;28;20280;-63
2022/04/06 02:20:49;;;;;;;2.22;1.60;;;22.10;57.80;;;;;;4988286;28;20229;-57
2022/04/06 02:23:22;;;;;;;1.90;1.30;;;22.10;57.80;;;;;;4988778;28;20289;-62
2022/04/06 02:25:52;;;;;;;1.92;1.45;;;22.10;57.80;;;;;;4988635;28;20209;-62
2022/04/06 02:28:23;;;;;;;2.78;1.63;;;22.10;57.80;;;;;;4989159;28;20284;-61
2022/04/06 02:30:53;;;;;;;2.92;1.50;;;22.10;57.70;;;;;;4991280;28;20196;-66
2022/04/06 02:33:24;;;;;;;1.67;1.45;;;22.10;57.70;;;;;;4992812;28;20281;-60
2022/04/06 02:35:54;;;;;;;2.25;1.50;;;22.10;57.80;;;;;;4993218;28;20316;-66
2022/04/06 02:38:26;;;;;;;2.10;1.40;;;22.10;57.80;;;;;;4993340;28;20292;-66
2022/04/06 02:40:57;;;;;;;1.60;1.23;;;22.10;57.80;;;;;;4993460;28;20280;-61
2022/04/06 02:43:27;;;;;;;1.58;1.45;;;22.10;57.80;;;;;;4992108;28;20289;-62
2022/04/06 02:45:58;;;;;;;2.05;1.40;;;22.10;57.80;;;;;;4992504;28;20276;-62
2022/04/06 02:48:28;;;;;;;2.50;1.48;;;22.20;57.90;;;;;;4991691;28;20221;-64
2022/04/06 02:50:59;;;;;;;2.70;1.50;;;22.20;57.90;;;;;;4993053;28;20244;-62
2022/04/06 02:53:31;;;;;;;2.78;1.67;;;22.20;57.90;;;;;;4992545;28;20280;-60
2022/04/06 02:56:01;;;;;;;1.70;1.48;;;22.20;57.90;;;;;;4992593;28;20685;-60
2022/04/06 02:58:32;;;;;;;2.00;1.20;;;22.30;57.90;;;;;;4992094;28;20243;-65
2022/04/06 03:01:02;;;;;;;2.47;1.73;;;22.30;57.90;;;;;;4989377;28;20272;-62
2022/04/06 03:03:33;;;;;;;1.70;1.60;;;22.30;57.90;;;;;;4993117;28;20716;-61
2022/04/06 03:06:05;;;;;;;2.50;1.80;;;22.30;57.90;;;;;;4990405;28;21217;-58
2022/04/06 03:08:37;;;;;;;2.40;1.38;;;22.30;57.90;;;;;;4992486;28;20209;-58
2022/04/06 03:11:08;;;;;;;2.35;1.58;;;22.40;57.90;;;;;;4992132;28;20281;-65
2022/04/06 03:13:38;;;;;;;2.15;1.60;;;22.40;57.90;;;;;;4992867;28;20299;-63
2022/04/06 03:16:09;;;;;;;2.78;1.65;;;22.40;57.90;;;;;;4992459;28;20232;-60
2022/04/06 03:18:40;;;;;;;2.20;1.60;;;22.40;57.90;;;;;;4992009;28;20220;-63
2022/04/06 03:21:10;;;;;;;2.20;1.70;;;22.50;57.90;;;;;;4991692;28;20296;-64
2022/04/06 03:23:43;;;;;;;3.88;2.08;;;22.50;57.90;;;;;;4992153;28;20293;-66
2022/04/06 03:26:13;;;;;;;2.45;1.35;;;22.50;58.00;;;;;;4991659;28;20207;-59
2022/04/06 03:28:44;;;;;;;2.13;1.52;;;22.50;58.00;;;;;;4991662;28;20305;-66
2022/04/06 03:31:14;;;;;;;2.72;1.92;;;22.50;58.00;;;;;;4992294;28;20217;-63
2022/04/06 03:33:45;;;;;;;2.28;1.65;;;22.60;58.00;;;;;;4992370;28;20287;-61
2022/04/06 03:36:15;;;;;;;2.90;1.67;;;22.60;58.00;;;;;;4991545;28;20755;-64
2022/04/06 03:38:47;;;;;;;3.30;1.95;;;22.60;58.00;;;;;;4980455;28;20657;-63
2022/04/06 03:41:18;;;;;;;2.65;1.60;;;22.60;58.10;;;;;;4987579;28;20623;-61
2022/04/06 03:43:49;;;;;;;3.10;2.00;;;22.60;58.00;;;;;;4991444;28;20821;-61
2022/04/06 03:46:20;;;;;;;2.35;1.50;;;22.70;58.00;;;;;;4991345;28;20204;-58
2022/04/06 03:48:50;;;;;;;2.05;1.60;;;22.70;58.10;;;;;;4991529;28;20209;-61
2022/04/06 03:51:20;;;;;;;1.80;1.42;;;22.70;58.10;;;;;;4990613;28;20225;-65
2022/04/06 03:53:53;;;;;;;2.50;1.55;;;22.80;58.00;;;;;;4991322;28;20289;-61
2022/04/06 03:56:23;;;;;;;2.45;1.60;;;22.70;57.90;;;;;;4990696;28;20312;-61
2022/04/06 03:58:54;;;;;;;2.30;1.70;;;22.80;58.00;;;;;;4989510;28;20209;-60
2022/04/06 04:01:24;;;;;;;4.22;1.77;;;22.80;58.00;;;;;;4991219;28;20292;-61
2022/04/06 04:03:54;;;;;;;3.03;1.83;;;22.80;58.00;;;;;;4987772;28;20739;-67
2022/04/06 04:06:25;;;;;;;4.10;1.60;;;22.80;58.00;;;;;;4987630;28;20312;-64
2022/04/06 04:08:58;;;;;;;3.75;1.73;;;22.80;57.90;;;;;;4987880;28;20222;-61
2022/04/06 04:11:28;;;;;;;3.85;1.73;;;22.80;57.90;;;;;;4986009;28;20289;-61
2022/04/06 04:13:59;;;;;;;2.63;1.92;;;22.80;57.90;;;;;;4991309;28;20282;-58
2022/04/06 04:16:30;;;;;;;3.65;2.08;;;22.80;57.80;;;;;;4990805;28;20217;-64
2022/04/06 04:19:00;;;;;;;2.88;1.85;;;22.80;57.80;;;;;;4989735;28;20814;-63
2022/04/06 04:21:33;;;;;;;4.15;2.00;;;22.80;57.80;;;;;;4991036;28;20272;-63
2022/04/06 04:24:08;;;;;;;2.85;1.60;;;22.80;57.80;;;;;;4990550;28;20688;-63
2022/04/06 04:26:39;;;;;;;2.85;1.80;;;22.80;57.80;;;;;;4991438;28;20271;-56
2022/04/06 04:29:09;;;;;;;4.63;2.15;;;22.80;57.80;;;;;;4990999;28;20300;-63
2022/04/06 04:31:40;;;;;;;4.43;2.10;;;22.80;57.80;;;;;;4990234;28;20208;-64
2022/04/06 04:34:11;;;;;;;3.05;1.95;;;22.80;57.80;;;;;;4990694;28;20543;-63
2022/04/06 04:36:41;;;;;;;3.08;1.70;;;22.80;57.80;;;;;;4991073;28;20325;-58
2022/04/06 04:39:14;;;;;;;5.03;1.80;;;22.80;57.80;;;;;;4967945;28;20297;-64
2022/04/06 04:41:44;;;;;;;4.10;1.95;;;22.80;57.80;;;;;;4953303;28;20202;-58
2022/04/06 04:44:15;;;;;;;3.63;1.80;;;22.80;57.70;;;;;;4952557;28;20293;-58
2022/04/06 04:46:45;;;;;;;4.30;2.03;;;22.80;57.70;;;;;;4952171;28;20289;-62
2022/04/06 04:49:16;;;;;;;5.07;1.70;;;22.70;57.60;;;;;;4959075;28;20630;-62
2022/04/06 04:51:47;;;;;;;4.40;2.00;;;22.70;57.60;;;;;;4970540;28;20218;-65
2022/04/06 04:54:23;;;;;;;4.07;2.28;;;22.70;57.60;;;;;;4970141;28;20364;-63
2022/04/06 04:56:54;;;;;;;6.20;2.17;;;22.70;57.60;;;;;;4971040;28;20236;-65
2022/04/06 04:59:25;;;;;;;3.75;1.77;;;22.70;57.60;;;;;;4970897;28;20304;-63
2022/04/06 05:01:55;;;;;;;5.60;2.08;;;22.70;57.60;;;;;;4971066;28;20259;-59
2022/04/06 05:04:26;;;;;;;6.45;2.30;;;22.70;57.60;;;;;;4970783;28;20820;-65
2022/04/06 05:06:56;;;;;;;4.47;1.85;;;22.70;57.70;;;;;;4971394;28;20242;-64
2022/04/06 05:09:28;;;;;;;5.32;2.05;;;22.70;57.70;;;;;;4971659;28;20218;-62
2022/04/06 05:11:59;;;;;;;3.75;2.00;;;22.70;57.70;;;;;;4972612;28;20635;-63
2022/04/06 05:14:31;;;;;;;3.55;1.83;;;22.60;57.60;;;;;;4972394;28;20201;-66
2022/04/06 05:17:01;;;;;;;4.32;1.98;;;22.60;57.60;;;;;;4972243;28;20225;-63
2022/04/06 05:19:31;;;;;;;6.38;2.17;;;22.60;57.60;;;;;;4972063;28;20320;-59
2022/04/06 05:22:02;;;;;;;6.50;1.98;;;22.60;57.60;;;;;;4972111;28;20243;-64
2022/04/06 05:24:34;;;;;;;6.20;1.83;;;22.60;57.60;;;;;;4971643;28;20281;-63
2022/04/06 05:27:05;;;;;;;5.57;2.45;;;22.60;57.60;;;;;;4971893;28;20667;-63
2022/04/06 05:29:35;;;;;;;5.43;2.25;;;22.60;57.60;;;;;;4971621;28;20309;-62
2022/04/06 05:32:06;;;;;;;7.25;2.42;;;22.60;57.60;;;;;;4971887;28;20710;-59
2022/04/06 05:34:37;;;;;;;3.63;1.70;;;22.60;57.60;;;;;;4972159;28;20212;-62
2022/04/06 05:37:08;;;;;;;2.58;1.98;;;22.60;57.60;;;;;;4971859;28;20317;-66
2022/04/06 05:39:40;;;;;;;5.93;2.47;;;22.60;57.60;;;;;;4971636;28;20315;-64
2022/04/06 05:42:11;;;;;;;7.25;2.10;;;22.60;57.60;;;;;;4971507;28;20298;-63
2022/04/06 05:44:41;;;;;;;6.03;2.25;;;22.50;57.50;;;;;;4959255;28;20277;-62
2022/04/06 05:47:12;;;;;;;4.85;2.13;;;22.50;57.50;;;;;;4952648;28;20237;-60
2022/04/06 05:49:43;;;;;;;7.18;2.58;;;22.50;57.50;;;;;;4960900;28;20218;-59
2022/04/06 05:52:13;;;;;;;4.03;2.42;;;22.50;57.50;;;;;;4962836;28;20202;-63
2022/04/06 05:54:46;;;;;;;6.30;2.60;;;22.50;57.40;;;;;;4971239;28;20281;-60
2022/04/06 05:57:16;;;;;;;7.00;2.97;;;22.50;57.50;;;;;;4971476;28;20225;-63
2022/04/06 05:59:46;;;;;;;5.90;3.17;;;22.40;57.40;;;;;;4971244;28;20653;-59
2022/04/06 06:02:18;;;;;;;6.75;3.70;;;22.40;57.40;;;;;;4952467;28;20402;-64
2022/04/06 06:04:49;;;;;;;8.23;4.53;;;22.40;57.40;;;;;;4952002;28;20203;-59
2022/04/06 06:07:22;;;;;;;8.10;4.53;;;22.40;57.40;;;;;;4952199;28;20257;-66
2022/04/06 06:09:54;;;;;;;8.32;4.60;;;22.40;57.30;;;;;;4958036;28;20293;-60
2022/04/06 06:12:25;;;;;;;7.35;4.00;;;22.40;57.30;;;;;;4971413;28;20209;-64
2022/04/06 06:14:55;;;;;;;7.32;4.57;;;22.30;57.30;;;;;;4970990;28;20630;-65
2022/04/06 06:17:25;;;;;;;6.18;4.38;;;22.30;57.20;;;;;;4971181;28;20230;-62
2022/04/06 06:19:56;;;;;;;6.68;3.60;;;22.30;57.20;;;;;;4971448;28;20261;-64
2022/04/06 06:22:26;;;;;;;7.70;3.90;;;22.30;57.20;;;;;;4971055;28;20206;-63
2022/04/06 06:24:59;;;;;;;7.10;4.10;;;22.30;57.20;;;;;;4970796;28;20198;-65
2022/04/06 06:27:29;;;;;;;6.05;3.70;;;22.30;57.20;;;;;;4971086;28;20281;-65
2022/04/06 06:29:59;;;;;;;9.48;3.85;;;22.30;57.20;;;;;;4970859;28;20218;-65
2022/04/06 06:32:30;;;;;;;6.95;4.05;;;22.20;57.10;;;;;;4971220;28;20198;-62
2022/04/06 06:35:00;;;;;;;8.18;4.10;;;22.30;57.20;;;;;;4970907;28;20293;-60
2022/04/06 06:37:31;;;;;;;7.78;3.63;;;22.20;57.10;;;;;;4970736;28;20308;-60
2022/04/06 06:40:04;;;;;;;6.25;3.80;;;22.20;57.10;;;;;;4970458;28;20301;-62
2022/04/06 06:42:34;;;;;;;4.63;3.25;;;22.20;57.10;;;;;;4971031;28;20639;-60
2022/04/06 06:45:05;;;;;;;6.68;3.70;;;22.20;57.10;;;;;;4970569;28;20333;-65
2022/04/06 06:47:35;;;;;;;6.75;4.00;;;22.20;57.10;;;;;;4971284;28;20198;-65
2022/04/06 06:50:06;;;;;;;8.43;3.60;;;22.10;57.10;;;;;;4970848;28;20452;-64
2022/04/06 06:52:37;;;;;;;6.03;3.10;;;22.10;57.00;;;;;;4970598;28;20625;-59
2022/04/06 06:55:11;;;;;;;7.95;3.55;;;22.10;57.00;;;;;;4970294;28;20301;-65
2022/04/06 06:57:41;;;;;;;6.97;3.08;;;22.10;57.00;;;;;;4970875;28;20251;-63
2022/04/06 07:00:12;;;;;;;6.85;3.50;;;22.10;57.00;;;;;;4970719;28;20309;-59
2022/04/06 07:02:46;;;;;;;6.55;3.67;;;22.10;57.00;;;;;;4971110;28;20233;-66
2022/04/06 07:05:16;;;;;;;6.05;3.15;;;22.00;57.00;;;;;;4971045;28;20289;-65
2022/04/06 07:07:54;;;;;;;6.63;3.85;;;22.00;57.00;;;;;;5003497;22;20776;-57
2022/04/06 07:10:29;;;;;;;8.95;6.70;;;22.00;57.00;;;;;;4998401;28;20743;-58
2022/04/06 07:12:59;;;;;;;9.77;5.20;;;22.00;57.20;;;;;;5009545;28;20192;-57
2022/04/06 07:15:30;;;;;;;7.20;4.57;;;22.00;57.20;;;;;;5009590;28;20621;-58
2022/04/06 07:18:03;;;;;;;7.25;4.72;;;22.00;57.20;;;;;;5012887;28;20307;-57
2022/04/06 07:20:35;;;;;;;8.93;5.05;;;22.00;57.20;;;;;;5013040;28;20248;-57
2022/04/06 07:23:06;;;;;;;8.50;4.45;;;22.00;57.20;;;;;;5013225;28;20197;-57
2022/04/06 07:25:39;;;;;;;6.95;4.97;;;22.00;57.20;;;;;;5012522;28;20274;-57
2022/04/06 07:28:10;;;;;;;6.53;4.55;;;21.90;57.20;;;;;;5012974;28;20203;-57
2022/04/06 07:30:41;;;;;;;7.43;4.55;;;21.90;57.20;;;;;;5012828;28;20235;-57
2022/04/06 07:33:13;;;;;;;6.95;4.50;;;21.90;57.10;;;;;;5012987;28;20818;-59
2022/04/06 07:35:43;;;;;;;9.65;4.82;;;21.90;57.20;;;;;;5012414;28;20197;-57
2022/04/06 07:38:14;;;;;;;6.82;4.13;;;21.90;57.10;;;;;;5012885;28;20315;-57
2022/04/06 07:40:46;;;;;;;6.72;4.15;;;21.80;57.10;;;;;;5012735;28;20197;-57
2022/04/06 07:43:17;;;;;;;6.50;4.20;;;21.80;57.10;;;;;;5013038;28;20197;-57
2022/04/06 07:45:47;;;;;;;6.53;4.03;;;21.80;57.10;;;;;;5012518;28;20272;-58
2022/04/06 07:48:17;;;;;;;7.10;4.28;;;21.80;57.10;;;;;;5012961;28;20280;-58
2022/04/06 07:50:48;;;;;;;6.25;4.07;;;21.80;57.10;;;;;;5012841;28;20288;-57
2022/04/06 07:53:19;;;;;;;6.40;4.05;;;21.80;57.10;;;;;;5012784;28;20224;-57
2022/04/06 07:55:51;;;;;;;5.70;3.67;;;21.70;57.10;;;;;;5012196;28;20197;-58
2022/04/06 07:58:23;;;;;;;7.15;3.72;;;21.80;57.10;;;;;;5012840;28;20229;-58
2022/04/06 08:00:54;;;;;;;5.78;3.58;;;21.70;57.10;;;;;;5012781;28;20197;-58
2022/04/06 08:03:24;;;;;;;5.75;3.83;;;21.70;57.10;;;;;;5012532;28;20276;-57
2022/04/06 08:05:56;;;;;;;5.88;4.00;;;21.70;57.10;;;;;;4997830;28;20276;-61
2022/04/06 08:08:26;;;;;;;5.93;3.60;;;21.70;57.10;;;;;;4992618;28;20197;-58
2022/04/06 08:10:59;;;;;;;4.40;3.10;;;21.70;57.10;;;;;;5002022;28;20224;-58
2022/04/06 08:13:29;;;;;;;5.43;3.72;;;21.70;57.10;;;;;;5012195;28;20204;-58
2022/04/06 08:16:00;;;;;;;7.15;3.90;;;21.70;57.10;;;;;;5012222;28;20205;-58
2022/04/06 08:18:30;;;;;;;7.35;3.40;;;21.70;57.10;;;;;;5012239;28;20234;-59
2022/04/06 08:21:01;;;;;;;6.20;3.45;;;21.60;57.00;;;;;;5012016;28;20629;-59
2022/04/06 08:23:31;;;;;;;6.43;3.47;;;21.60;57.10;;;;;;5012695;28;20201;-58
2022/04/06 08:26:03;;;;;;;6.15;3.33;;;21.60;57.10;;;;;;5011717;28;20284;-59
2022/04/06 08:28:34;;;;;;;4.25;3.05;;;21.60;57.10;;;;;;5011703;28;20641;-58
2022/04/06 08:31:05;;;;;;;6.55;3.58;;;21.60;57.10;;;;;;5012231;28;20251;-58
2022/04/06 08:33:36;;;;;;;5.05;3.15;;;21.50;57.00;;;;;;5012119;28;20262;-58
2022/04/06 08:36:09;;;;;;;7.68;3.72;;;21.50;57.10;;;;;;5011662;28;20200;-57
2022/04/06 08:38:39;;;;;;;7.15;3.38;;;21.50;57.10;;;;;;5005163;28;20719;-58
2022/04/06 08:41:12;;;;;;;6.07;3.53;;;21.50;57.10;;;;;;5001847;28;20276;-58
2022/04/06 08:43:43;;;;;;;4.45;3.55;;;21.50;57.10;;;;;;5012273;28;20276;-58
2022/04/06 08:46:14;;;;;;;5.93;3.30;;;21.50;57.10;;;;;;5012199;28;20200;-58
2022/04/06 08:48:49;;;;;;;4.50;3.17;;;21.50;57.10;;;;;;5011463;28;20263;-58
2022/04/06 08:51:20;;;;;;;5.90;3.50;;;21.50;57.20;;;;;;5011375;28;20232;-58
2022/04/06 08:53:51;;;;;;;5.78;3.20;;;21.50;57.10;;;;;;5008684;28;20208;-59
2022/04/06 08:56:23;;;;;;;7.00;3.75;;;21.50;57.20;;;;;;5009738;28;20192;-59
2022/04/06 08:58:54;;;;;;;6.22;3.30;;;21.40;57.10;;;;;;5009786;28;20224;-58
2022/04/06 09:01:24;;;;;;;4.18;3.10;;;21.40;57.20;;;;;;5010338;28;20303;-58
2022/04/06 09:03:55;;;;;;;4.70;3.47;;;21.40;57.20;;;;;;5010224;28;20280;-59
2022/04/06 09:06:26;;;;;;;5.88;3.10;;;21.40;57.20;;;;;;5009194;28;20287;-58
2022/04/06 09:08:59;;;;;;;4.15;3.15;;;21.40;57.20;;;;;;5010609;28;20248;-75
2022/04/06 09:11:42;;;;;;;6.13;3.08;;;21.40;57.20;;;;;;5009835;28;20672;-59
2022/04/06 09:14:13;;;;;;;4.03;3.00;;;21.40;57.30;;;;;;5010073;28;20631;-59
2022/04/06 09:16:43;;;;;;;4.70;3.30;;;21.30;57.20;;;;;;5009315;28;20621;-59
2022/04/06 09:19:16;;;;;;;6.72;3.65;;;21.40;57.90;;;;;;5009155;28;20311;-58
2022/04/06 09:21:47;;;;;;;4.72;3.35;;;21.30;57.20;;;;;;4993663;28;20224;-58
2022/04/06 09:24:18;;;;;;;4.22;3.08;;;21.30;57.20;;;;;;5005180;28;20193;-58
2022/04/06 09:26:59;;;;;;;3.78;2.83;;;21.30;57.20;;;;;;5009199;28;20284;-58
2022/04/06 09:29:30;;;;;;;3.97;3.00;;;21.20;57.20;;;;;;5009886;28;20220;-58
2022/04/06 09:32:09;;;;;;;5.70;3.17;;;21.30;57.30;;;;;;5009736;28;20201;-58
2022/04/06 09:34:39;;;;;;;5.28;3.15;;;21.30;57.30;;;;;;5009325;28;20284;-57
2022/04/06 09:37:28;;;;;;;4.78;3.25;;;21.30;57.30;;;;;;5008614;28;20197;-57
2022/04/06 09:39:59;;;;;;;4.88;3.15;;;21.20;57.30;;;;;;5008148;28;20228;-58
2022/04/06 09:42:32;;;;;;;4.90;3.13;;;21.20;57.30;;;;;;5009019;28;20280;-57
2022/04/06 09:47:54;;;;;;;4.57;2.90;;;21.20;57.30;;;;;;5007469;28;20692;-57
2022/04/06 09:50:27;;;;;;;4.10;3.08;;;21.20;57.30;;;;;;5009278;28;20718;-57
2022/04/06 09:53:00;;;;;;;3.78;3.10;;;21.20;57.40;;;;;;5009295;28;20280;-56
2022/04/06 09:55:30;;;;;;;4.90;3.03;;;21.20;57.40;;;;;;5008592;28;20292;-57
2022/04/06 09:58:05;;;;;;;3.85;3.03;;;21.20;57.40;;;;;;5008641;28;20228;-57
2022/04/06 10:00:37;;;;;;;5.85;3.05;;;21.10;57.40;;;;;;5009229;28;20747;-57
2022/04/06 10:03:09;;;;;;;4.35;2.92;;;21.20;58.00;;;;;;5008624;28;20205;-58
2022/04/06 10:05:42;;;;;;;4.25;2.60;;;21.10;57.30;;;;;;5009107;28;20193;-56
2022/04/06 10:08:13;;;;;;;3.75;2.80;;;21.10;57.40;;;;;;5007794;28;20698;-56
2022/04/06 10:10:45;;;;;;;4.93;3.15;;;21.10;57.30;;;;;;5005034;28;20289;-57
2022/04/06 10:13:18;;;;;;;4.60;3.10;;;21.10;58.00;;;;;;5008556;28;20717;-57
2022/04/06 10:15:49;;;;;;;3.97;3.20;;;21.10;57.40;;;;;;5008060;28;20189;-57
2022/04/06 10:18:21;;;;;;;4.25;2.80;;;21.10;57.40;;;;;;5008816;28;20229;-57
2022/04/06 10:20:57;;;;;;;3.67;2.92;;;21.10;57.40;;;;;;5008604;28;20204;-58
2022/04/06 10:23:48;;;;;;;3.22;2.83;;;21.10;57.40;;;;;;5008723;28;20540;-58
2022/04/06 10:26:34;;;;;;;3.88;3.20;;;21.00;57.40;;;;;;5007719;28;20280;-57
2022/04/06 10:29:07;;;;;;;5.45;4.00;;;21.10;57.40;;;;;;5008431;28;20220;-57
2022/04/06 10:31:38;;;;;;;3.97;3.42;;;21.00;57.60;;;;;;5008257;28;20237;-58
2022/04/06 10:34:25;;;;;;;4.15;3.22;;;21.00;57.60;;;;;;5007107;28;20207;-57
2022/04/06 10:37:11;;;;;;;4.60;3.30;;;21.00;57.60;;;;;;5007498;28;20197;-57
2022/04/06 10:40:04;;;;;;;3.92;3.15;;;21.00;57.60;;;;;;5008822;28;20232;-57
2022/04/06 10:42:37;;;;;;;4.05;3.15;;;21.00;57.60;;;;;;4999001;28;20279;-58
2022/04/06 10:45:41;;;;;;;4.35;3.15;;;21.00;57.60;;;;;;5009077;28;20200;-57
2022/04/06 10:48:16;;;;;;;5.68;4.13;;;21.00;57.70;;;;;;5008743;28;20263;-56
2022/04/06 10:50:48;;;;;;;4.95;3.63;;;21.00;57.70;;;;;;5008510;28;20194;-57
2022/04/06 10:53:33;;;;;;;6.68;3.70;;;20.90;57.70;;;;;;5012764;28;20197;-58
2022/04/06 10:56:06;;;;;;;3.88;3.20;;;20.90;57.70;;;;;;5012207;28;20619;-58
2022/04/06 10:59:09;;;;;;;4.18;3.33;;;20.90;57.70;;;;;;5012284;28;20220;-58
2022/04/06 11:01:45;;;;;;;6.30;3.92;;;20.90;57.70;;;;;;4970540;28;20217;-59
2022/04/06 11:04:23;;;;;;;4.13;2.90;;;20.90;57.70;;;;;;5006276;28;20224;-57
2022/04/06 11:06:57;;;;;;;5.07;3.65;;;20.90;58.30;;;;;;5012012;28;20712;-57
2022/04/06 11:12:17;;;;;;;4.50;3.05;;;20.80;57.70;;;;;;5012172;28;20204;-57
2022/04/06 11:14:49;;;;;;;5.57;3.38;;;20.80;57.60;;;;;;5009479;28;20445;-58
2022/04/06 11:17:42;;;;;;;5.07;3.40;;;20.80;57.70;;;;;;5004498;28;20200;-56
2022/04/06 11:20:14;;;;;;;4.80;3.40;;;20.80;57.70;;;;;;5010013;28;20236;-58
2022/04/06 11:22:46;;;;;;;5.25;3.47;;;20.80;57.70;;;;;;5011094;28;20284;-57
2022/04/06 11:25:18;;;;;;;4.60;3.13;;;20.80;57.70;;;;;;5012476;28;20280;-61
2022/04/06 11:27:49;;;;;;;3.88;3.17;;;20.80;57.70;;;;;;5011224;28;20302;-64
2022/04/06 11:30:22;;;;;;;3.72;2.90;;;20.80;57.70;;;;;;5010506;28;20248;-59
2022/04/06 11:32:58;;;;;;;3.85;3.13;;;20.70;57.70;;;;;;5010771;28;20196;-59
2022/04/06 11:35:31;;;;;;;4.10;3.03;;;20.70;57.70;;;;;;5011084;28;20204;-59
2022/04/06 11:38:01;;;;;;;3.40;2.63;;;20.70;57.70;;;;;;5010610;28;20654;-59
2022/04/06 11:40:33;;;;;;;3.08;2.72;;;20.70;57.60;;;;;;5012155;28;20223;-58
2022/04/06 11:43:05;;;;;;;3.50;3.00;;;20.70;57.60;;;;;;5011161;28;20276;-60
2022/04/06 11:45:37;;;;;;;5.85;3.08;;;20.70;57.70;;;;;;5009982;28;20599;-60
2022/04/06 11:48:12;;;;;;;2.80;2.60;;;20.70;57.60;;;;;;5014608;28;20590;-59
2022/04/06 11:50:43;;;;;;;4.47;3.00;;;20.60;57.60;;;;;;5013677;28;20254;-60
2022/04/06 11:53:18;;;;;;;3.60;2.90;;;20.60;57.60;;;;;;5012652;28;20284;-61
2022/04/06 11:55:50;;;;;;;3.08;2.58;;;20.60;57.60;;;;;;5013213;28;20199;-60
2022/04/06 11:58:43;;;;;;;4.03;2.85;;;20.60;57.60;;;;;;5009175;28;20275;-60
2022/04/06 12:01:15;;;;;;;3.92;2.92;;;20.60;57.60;;;;;;5009299;28;20193;-62
2022/04/06 12:03:49;;;;;;;2.90;2.58;;;20.60;57.60;;;;;;5011510;28;20287;-62
2022/04/06 12:06:20;;;;;;;4.13;2.78;;;20.60;57.60;;;;;;5012150;28;20328;-62
2022/04/06 12:08:50;;;;;;;3.80;2.75;;;20.60;57.60;;;;;;5012469;28;20307;-62
2022/04/06 12:11:23;;;;;;;3.85;2.70;;;20.60;57.60;;;;;;5012170;28;20295;-61
2022/04/06 12:13:54;;;;;;;3.13;2.83;;;20.60;57.60;;;;;;4992664;28;20288;-61
2022/04/06 12:16:26;;;;;;;3.88;2.42;;;20.60;57.60;;;;;;5005855;28;20284;-62
2022/04/06 12:18:58;;;;;;;4.00;2.45;;;20.50;57.50;;;;;;5012131;28;20228;-62
2022/04/06 12:21:31;;;;;;;4.65;2.95;;;20.50;57.50;;;;;;5012272;28;20658;-62
2022/04/06 12:24:02;;;;;;;3.78;2.78;;;20.50;57.50;;;;;;5008947;28;20660;-62
2022/04/06 12:26:45;;;;;;;3.15;2.40;;;20.50;57.60;;;;;;5012185;28;20841;-62
2022/04/06 12:29:16;;;;;;;3.83;2.90;;;20.50;57.60;;;;;;5012079;28;20217;-62
2022/04/06 12:31:48;;;;;;;3.42;3.00;;;20.50;57.50;;;;;;5011466;28;20283;-62
2022/04/06 12:34:37;;;;;;;3.67;2.55;;;20.50;57.60;;;;;;5012383;28;20288;-62
2022/04/06 12:39:57;;;;;;;4.22;2.88;;;20.40;57.50;;;;;;5012044;28;20774;-60
2022/04/06 12:42:27;;;;;;;3.00;2.60;;;20.40;57.50;;;;;;5012284;28;20200;-60
2022/04/06 12:45:01;;;;;;;2.80;2.35;;;20.40;57.60;;;;;;5011395;28;20301;-62
2022/04/06 12:47:31;;;;;;;3.35;2.80;;;20.30;57.50;;;;;;4992445;28;20221;-63
2022/04/06 12:50:19;;;;;;;2.90;2.58;;;20.30;57.50;;;;;;5005449;28;20300;-63
2022/04/06 12:53:04;;;;;;;2.97;2.33;;;20.30;57.50;;;;;;5011697;28;20653;-62
2022/04/06 12:55:34;;;;;;;3.60;2.50;;;20.30;57.40;;;;;;5011486;28;20285;-60
2022/04/06 12:58:17;;;;;;;2.60;2.10;;;20.30;57.40;;;;;;5011417;28;20618;-60
2022/04/06 13:00:47;;;;;;;3.25;2.33;;;20.30;57.40;;;;;;5011121;28;20207;-61
2022/04/06 13:03:18;;;;;;;2.78;2.42;;;20.30;57.40;;;;;;5011678;28;20236;-60
2022/04/06 13:05:50;;;;;;;2.42;2.17;;;20.30;57.40;;;;;;5011415;28;20653;-59
2022/04/06 13:08:22;;;;;;;3.08;2.78;;;20.30;57.50;;;;;;5011296;28;20259;-61
2022/04/06 14:10:28;;;;;;;2.42;2.20;;;19.90;57.20;;;;;;5626766;22;20242;-54
2022/04/06 14:12:58;;;;;;;2.92;2.08;;;19.90;57.20;;;;;;4997125;28;20276;-56
2022/04/06 14:15:29;;;;;;;2.53;2.10;;;19.90;57.20;;;;;;4990790;28;20281;-55
2022/04/06 14:17:59;;;;;;;2.45;1.90;;;19.80;57.20;;;;;;4990631;28;20290;-58
2022/04/06 14:20:29;;;;;;;2.55;1.98;;;19.80;57.80;;;;;;4990376;28;20316;-57
2022/04/06 14:23:00;;;;;;;2.60;2.08;;;19.80;57.20;;;;;;4990309;28;20285;-57
2022/04/06 14:25:33;;;;;;;2.25;1.92;;;19.80;57.20;;;;;;4989792;28;20293;-56